sensor_id;sensor_type;location;lat;lon;timestamp;P1;durP1;ratioP1;P2;durP2;ratioP2
51459;SDS011;37534;39.772;2.718;2023-04-01T00:02:07;4.32;;;2.78;;
51459;SDS011;37534;39.772;2.718;2023-04-01T00:04:32;7.97;;;2.63;;
51459;SDS011;37534;39.772;2.718;2023-04-01T00:06:58;8.05;;;3.63;;
51459;SDS011;37534;39.772;2.718;2023-04-01T00:09:25;9.35;;;3.25;;
51459;SDS011;37534;39.772;2.718;2023-04-01T00:11:51;8.50;;;3.28;;
51459;SDS011;37534;39.772;2.718;2023-04-01T00:14:16;9.38;;;3.25;;
51459;SDS011;37534;39.772;2.718;2023-04-01T00:16:42;3.65;;;2.83;;
51459;SDS011;37534;39.772;2.718;2023-04-01T00:19:08;8.07;;;2.75;;
51459;SDS011;37534;39.772;2.718;2023-04-01T00:21:34;3.15;;;2.55;;
51459;SDS011;37534;39.772;2.718;2023-04-01T00:24:00;5.03;;;2.78;;
51459;SDS011;37534;39.772;2.718;2023-04-01T00:26:25;3.65;;;2.58;;
51459;SDS011;37534;39.772;2.718;2023-04-01T00:28:51;6.00;;;3.13;;
51459;SDS011;37534;39.772;2.718;2023-04-01T00:31:17;6.20;;;2.70;;
51459;SDS011;37534;39.772;2.718;2023-04-01T00:33:43;3.45;;;2.33;;
51459;SDS011;37534;39.772;2.718;2023-04-01T00:36:12;7.00;;;2.75;;
51459;SDS011;37534;39.772;2.718;2023-04-01T00:38:39;6.90;;;2.53;;
51459;SDS011;37534;39.772;2.718;2023-04-01T00:41:06;3.90;;;2.90;;
51459;SDS011;37534;39.772;2.718;2023-04-01T00:43:32;3.33;;;2.13;;
51459;SDS011;37534;39.772;2.718;2023-04-01T00:45:59;12.73;;;3.22;;
51459;SDS011;37534;39.772;2.718;2023-04-01T00:48:26;5.18;;;3.13;;
51459;SDS011;37534;39.772;2.718;2023-04-01T00:53:38;10.63;;;4.40;;
51459;SDS011;37534;39.772;2.718;2023-04-01T00:56:09;16.05;;;4.63;;
51459;SDS011;37534;39.772;2.718;2023-04-01T00:58:40;5.35;;;4.30;;
51459;SDS011;37534;39.772;2.718;2023-04-01T01:01:09;7.07;;;5.43;;
51459;SDS011;37534;39.772;2.718;2023-04-01T01:03:35;11.00;;;5.63;;
51459;SDS011;37534;39.772;2.718;2023-04-01T01:14:28;4.50;;;3.47;;
51459;SDS011;37534;39.772;2.718;2023-04-01T01:25:29;8.30;;;2.75;;
51459;SDS011;37534;39.772;2.718;2023-04-01T01:30:52;8.30;;;2.75;;
51459;SDS011;37534;39.772;2.718;2023-04-01T01:36:27;4.88;;;2.92;;
51459;SDS011;37534;39.772;2.718;2023-04-01T01:38:59;7.90;;;4.03;;
51459;SDS011;37534;39.772;2.718;2023-04-01T01:41:27;12.88;;;3.95;;
51459;SDS011;37534;39.772;2.718;2023-04-01T01:43:56;7.03;;;4.05;;
51459;SDS011;37534;39.772;2.718;2023-04-01T01:46:24;11.88;;;4.80;;
51459;SDS011;37534;39.772;2.718;2023-04-01T01:48:53;19.08;;;4.75;;
51459;SDS011;37534;39.772;2.718;2023-04-01T01:51:20;5.18;;;4.05;;
51459;SDS011;37534;39.772;2.718;2023-04-01T01:53:47;7.90;;;3.90;;
51459;SDS011;37534;39.772;2.718;2023-04-01T01:56:12;5.40;;;3.70;;
51459;SDS011;37534;39.772;2.718;2023-04-01T01:58:45;7.20;;;3.80;;
51459;SDS011;37534;39.772;2.718;2023-04-01T02:01:16;6.82;;;3.95;;
51459;SDS011;37534;39.772;2.718;2023-04-01T02:03:45;8.25;;;3.53;;
51459;SDS011;37534;39.772;2.718;2023-04-01T02:06:14;9.95;;;3.92;;
51459;SDS011;37534;39.772;2.718;2023-04-01T02:08:46;4.30;;;3.00;;
51459;SDS011;37534;39.772;2.718;2023-04-01T02:11:13;5.63;;;3.30;;
51459;SDS011;37534;39.772;2.718;2023-04-01T02:13:54;6.50;;;3.33;;
51459;SDS011;37534;39.772;2.718;2023-04-01T02:16:28;7.40;;;3.40;;
51459;SDS011;37534;39.772;2.718;2023-04-01T02:18:57;6.90;;;3.27;;
51459;SDS011;37534;39.772;2.718;2023-04-01T02:21:26;7.82;;;2.63;;
51459;SDS011;37534;39.772;2.718;2023-04-01T02:23:56;6.25;;;3.08;;
51459;SDS011;37534;39.772;2.718;2023-04-01T02:26:24;7.30;;;3.13;;
51459;SDS011;37534;39.772;2.718;2023-04-01T02:28:52;4.80;;;3.13;;
51459;SDS011;37534;39.772;2.718;2023-04-01T02:31:19;2.72;;;2.38;;
51459;SDS011;37534;39.772;2.718;2023-04-01T02:33:46;5.43;;;2.35;;
51459;SDS011;37534;39.772;2.718;2023-04-01T02:36:13;8.43;;;2.97;;
51459;SDS011;37534;39.772;2.718;2023-04-01T02:38:40;5.03;;;3.17;;
51459;SDS011;37534;39.772;2.718;2023-04-01T02:41:06;7.93;;;3.47;;
51459;SDS011;37534;39.772;2.718;2023-04-01T02:43:32;7.75;;;2.92;;
51459;SDS011;37534;39.772;2.718;2023-04-01T02:45:58;9.93;;;3.47;;
51459;SDS011;37534;39.772;2.718;2023-04-01T02:48:24;8.95;;;4.50;;
51459;SDS011;37534;39.772;2.718;2023-04-01T02:50:49;6.20;;;3.63;;
51459;SDS011;37534;39.772;2.718;2023-04-01T02:53:15;9.20;;;4.00;;
51459;SDS011;37534;39.772;2.718;2023-04-01T02:55:41;6.03;;;2.47;;
51459;SDS011;37534;39.772;2.718;2023-04-01T02:58:07;10.90;;;2.85;;
51459;SDS011;37534;39.772;2.718;2023-04-01T03:00:32;12.70;;;3.40;;
51459;SDS011;37534;39.772;2.718;2023-04-01T03:02:58;8.82;;;2.40;;
51459;SDS011;37534;39.772;2.718;2023-04-01T03:05:23;8.90;;;2.92;;
51459;SDS011;37534;39.772;2.718;2023-04-01T03:07:49;10.02;;;3.13;;
51459;SDS011;37534;39.772;2.718;2023-04-01T03:10:15;6.00;;;2.80;;
51459;SDS011;37534;39.772;2.718;2023-04-01T03:12:41;7.22;;;3.13;;
51459;SDS011;37534;39.772;2.718;2023-04-01T03:15:06;11.50;;;3.33;;
51459;SDS011;37534;39.772;2.718;2023-04-01T03:17:34;4.70;;;2.58;;
51459;SDS011;37534;39.772;2.718;2023-04-01T03:19:59;7.18;;;2.92;;
51459;SDS011;37534;39.772;2.718;2023-04-01T03:22:25;4.85;;;2.03;;
51459;SDS011;37534;39.772;2.718;2023-04-01T03:24:51;12.32;;;3.28;;
51459;SDS011;37534;39.772;2.718;2023-04-01T03:27:17;3.35;;;2.22;;
51459;SDS011;37534;39.772;2.718;2023-04-01T03:29:42;20.10;;;3.22;;
51459;SDS011;37534;39.772;2.718;2023-04-01T03:32:08;6.80;;;3.08;;
51459;SDS011;37534;39.772;2.718;2023-04-01T03:34:33;11.55;;;3.05;;
51459;SDS011;37534;39.772;2.718;2023-04-01T03:36:59;12.13;;;3.72;;
51459;SDS011;37534;39.772;2.718;2023-04-01T03:39:25;5.88;;;3.47;;
51459;SDS011;37534;39.772;2.718;2023-04-01T03:41:51;8.32;;;3.40;;
51459;SDS011;37534;39.772;2.718;2023-04-01T03:44:16;5.25;;;2.83;;
51459;SDS011;37534;39.772;2.718;2023-04-01T03:46:42;6.55;;;3.45;;
51459;SDS011;37534;39.772;2.718;2023-04-01T03:49:08;7.13;;;3.20;;
51459;SDS011;37534;39.772;2.718;2023-04-01T03:51:41;16.38;;;3.42;;
51459;SDS011;37534;39.772;2.718;2023-04-01T03:54:08;10.13;;;3.38;;
51459;SDS011;37534;39.772;2.718;2023-04-01T03:56:35;8.82;;;3.65;;
51459;SDS011;37534;39.772;2.718;2023-04-01T03:59:01;11.50;;;3.60;;
51459;SDS011;37534;39.772;2.718;2023-04-01T04:01:28;4.68;;;2.78;;
51459;SDS011;37534;39.772;2.718;2023-04-01T04:03:54;5.35;;;3.90;;
51459;SDS011;37534;39.772;2.718;2023-04-01T04:06:20;9.13;;;3.55;;
51459;SDS011;37534;39.772;2.718;2023-04-01T04:08:46;5.88;;;3.33;;
51459;SDS011;37534;39.772;2.718;2023-04-01T04:11:11;8.93;;;3.38;;
51459;SDS011;37534;39.772;2.718;2023-04-01T04:13:37;6.30;;;3.13;;
51459;SDS011;37534;39.772;2.718;2023-04-01T04:16:03;8.00;;;3.53;;
51459;SDS011;37534;39.772;2.718;2023-04-01T04:18:29;7.38;;;2.70;;
51459;SDS011;37534;39.772;2.718;2023-04-01T04:20:54;5.60;;;3.35;;
51459;SDS011;37534;39.772;2.718;2023-04-01T04:23:20;12.38;;;3.95;;
51459;SDS011;37534;39.772;2.718;2023-04-01T04:25:55;10.52;;;3.47;;
51459;SDS011;37534;39.772;2.718;2023-04-01T04:28:34;5.05;;;2.88;;
51459;SDS011;37534;39.772;2.718;2023-04-01T04:31:00;7.93;;;3.00;;
51459;SDS011;37534;39.772;2.718;2023-04-01T04:33:26;4.95;;;3.10;;
51459;SDS011;37534;39.772;2.718;2023-04-01T04:35:54;7.47;;;3.30;;
51459;SDS011;37534;39.772;2.718;2023-04-01T04:38:21;11.48;;;3.88;;
51459;SDS011;37534;39.772;2.718;2023-04-01T04:40:47;9.00;;;3.47;;
51459;SDS011;37534;39.772;2.718;2023-04-01T04:43:13;11.70;;;3.78;;
51459;SDS011;37534;39.772;2.718;2023-04-01T04:45:40;7.93;;;3.85;;
51459;SDS011;37534;39.772;2.718;2023-04-01T04:48:13;7.60;;;4.18;;
51459;SDS011;37534;39.772;2.718;2023-04-01T04:50:43;7.53;;;4.18;;
51459;SDS011;37534;39.772;2.718;2023-04-01T04:53:12;7.65;;;3.85;;
51459;SDS011;37534;39.772;2.718;2023-04-01T04:55:44;9.10;;;3.65;;
51459;SDS011;37534;39.772;2.718;2023-04-01T04:58:10;5.85;;;4.28;;
51459;SDS011;37534;39.772;2.718;2023-04-01T05:00:36;10.38;;;4.43;;
51459;SDS011;37534;39.772;2.718;2023-04-01T05:03:02;9.82;;;4.22;;
51459;SDS011;37534;39.772;2.718;2023-04-01T05:05:27;9.32;;;3.85;;
51459;SDS011;37534;39.772;2.718;2023-04-01T05:07:53;7.90;;;4.22;;
51459;SDS011;37534;39.772;2.718;2023-04-01T05:10:18;9.27;;;4.25;;
51459;SDS011;37534;39.772;2.718;2023-04-01T05:12:45;10.75;;;5.07;;
51459;SDS011;37534;39.772;2.718;2023-04-01T05:15:11;10.55;;;4.38;;
51459;SDS011;37534;39.772;2.718;2023-04-01T05:17:37;12.57;;;4.30;;
51459;SDS011;37534;39.772;2.718;2023-04-01T05:20:02;16.42;;;4.68;;
51459;SDS011;37534;39.772;2.718;2023-04-01T05:22:29;12.10;;;3.67;;
51459;SDS011;37534;39.772;2.718;2023-04-01T05:24:55;13.07;;;5.13;;
51459;SDS011;37534;39.772;2.718;2023-04-01T05:27:20;6.60;;;4.22;;
51459;SDS011;37534;39.772;2.718;2023-04-01T05:29:46;5.70;;;4.65;;
51459;SDS011;37534;39.772;2.718;2023-04-01T05:32:12;7.47;;;4.00;;
51459;SDS011;37534;39.772;2.718;2023-04-01T05:34:37;7.25;;;3.83;;
51459;SDS011;37534;39.772;2.718;2023-04-01T05:37:03;9.13;;;3.88;;
51459;SDS011;37534;39.772;2.718;2023-04-01T05:39:28;15.77;;;4.78;;
51459;SDS011;37534;39.772;2.718;2023-04-01T05:41:54;8.50;;;4.72;;
51459;SDS011;37534;39.772;2.718;2023-04-01T05:44:20;17.08;;;4.95;;
51459;SDS011;37534;39.772;2.718;2023-04-01T05:46:45;13.27;;;4.78;;
51459;SDS011;37534;39.772;2.718;2023-04-01T05:49:11;10.30;;;4.47;;
51459;SDS011;37534;39.772;2.718;2023-04-01T05:51:36;9.52;;;4.47;;
51459;SDS011;37534;39.772;2.718;2023-04-01T05:54:03;12.98;;;6.07;;
51459;SDS011;37534;39.772;2.718;2023-04-01T05:56:30;7.22;;;4.95;;
51459;SDS011;37534;39.772;2.718;2023-04-01T05:58:55;8.02;;;4.13;;
51459;SDS011;37534;39.772;2.718;2023-04-01T06:01:21;9.98;;;4.75;;
51459;SDS011;37534;39.772;2.718;2023-04-01T06:03:46;28.63;;;6.22;;
51459;SDS011;37534;39.772;2.718;2023-04-01T06:06:25;12.95;;;5.93;;
51459;SDS011;37534;39.772;2.718;2023-04-01T06:08:52;12.23;;;5.60;;
51459;SDS011;37534;39.772;2.718;2023-04-01T06:22:36;22.55;;;7.90;;
51459;SDS011;37534;39.772;2.718;2023-04-01T06:25:10;14.50;;;6.80;;
51459;SDS011;37534;39.772;2.718;2023-04-01T06:28:00;15.93;;;7.10;;
51459;SDS011;37534;39.772;2.718;2023-04-01T06:36:09;11.05;;;6.45;;
51459;SDS011;37534;39.772;2.718;2023-04-01T06:55:41;15.15;;;7.50;;
51459;SDS011;37534;39.772;2.718;2023-04-01T06:58:34;19.45;;;5.97;;
51459;SDS011;37534;39.772;2.718;2023-04-01T07:01:04;17.85;;;6.28;;
51459;SDS011;37534;39.772;2.718;2023-04-01T07:08:35;11.73;;;5.65;;
51459;SDS011;37534;39.772;2.718;2023-04-01T07:11:09;19.95;;;6.85;;
51459;SDS011;37534;39.772;2.718;2023-04-01T07:16:44;15.98;;;7.05;;
51459;SDS011;37534;39.772;2.718;2023-04-01T07:19:20;16.55;;;6.30;;
51459;SDS011;37534;39.772;2.718;2023-04-01T07:22:00;17.88;;;6.80;;
51459;SDS011;37534;39.772;2.718;2023-04-01T07:24:34;16.42;;;7.65;;
51459;SDS011;37534;39.772;2.718;2023-04-01T07:27:03;23.83;;;7.88;;
51459;SDS011;37534;39.772;2.718;2023-04-01T07:29:34;13.05;;;7.35;;
51459;SDS011;37534;39.772;2.718;2023-04-01T07:32:12;32.25;;;7.22;;
51459;SDS011;37534;39.772;2.718;2023-04-01T07:37:39;14.45;;;6.78;;
51459;SDS011;37534;39.772;2.718;2023-04-01T07:56:52;19.25;;;6.80;;
51459;SDS011;37534;39.772;2.718;2023-04-01T07:59:35;15.15;;;6.13;;
51459;SDS011;37534;39.772;2.718;2023-04-01T08:16:37;12.52;;;6.47;;
51459;SDS011;37534;39.772;2.718;2023-04-01T08:19:21;23.45;;;7.78;;
51459;SDS011;37534;39.772;2.718;2023-04-01T08:21:52;14.35;;;6.82;;
51459;SDS011;37534;39.772;2.718;2023-04-01T08:24:25;17.75;;;6.00;;
51459;SDS011;37534;39.772;2.718;2023-04-01T08:26:59;11.38;;;6.68;;
51459;SDS011;37534;39.772;2.718;2023-04-01T08:29:39;55.30;;;24.25;;
51459;SDS011;37534;39.772;2.718;2023-04-01T08:32:20;55.33;;;23.00;;
51459;SDS011;37534;39.772;2.718;2023-04-01T08:34:55;20.42;;;8.40;;
51459;SDS011;37534;39.772;2.718;2023-04-01T08:37:35;12.90;;;6.57;;
51459;SDS011;37534;39.772;2.718;2023-04-01T08:43:15;14.15;;;5.57;;
51459;SDS011;37534;39.772;2.718;2023-04-01T08:51:32;9.32;;;5.20;;
51459;SDS011;37534;39.772;2.718;2023-04-01T08:54:13;12.77;;;6.18;;
51459;SDS011;37534;39.772;2.718;2023-04-01T09:03:36;22.33;;;7.10;;
51459;SDS011;37534;39.772;2.718;2023-04-01T09:14:26;15.25;;;6.13;;
51459;SDS011;37534;39.772;2.718;2023-04-01T09:32:05;30.17;;;8.73;;
51459;SDS011;37534;39.772;2.718;2023-04-01T09:35:18;26.40;;;7.80;;
51459;SDS011;37534;39.772;2.718;2023-04-01T09:46:44;15.23;;;7.85;;
51459;SDS011;37534;39.772;2.718;2023-04-01T10:03:08;18.35;;;6.97;;
51459;SDS011;37534;39.772;2.718;2023-04-01T10:14:17;14.80;;;5.43;;
51459;SDS011;37534;39.772;2.718;2023-04-01T10:28:12;13.25;;;5.85;;
51459;SDS011;37534;39.772;2.718;2023-04-01T10:36:47;14.60;;;5.68;;
51459;SDS011;37534;39.772;2.718;2023-04-01T10:42:25;13.43;;;5.60;;
51459;SDS011;37534;39.772;2.718;2023-04-01T10:50:39;20.63;;;6.47;;
51459;SDS011;37534;39.772;2.718;2023-04-01T10:59:15;13.77;;;6.13;;
51459;SDS011;37534;39.772;2.718;2023-04-01T11:07:54;15.23;;;5.07;;
51459;SDS011;37534;39.772;2.718;2023-04-01T11:13:26;10.30;;;4.93;;
51459;SDS011;37534;39.772;2.718;2023-04-01T11:25:04;14.65;;;6.25;;
51459;SDS011;37534;39.772;2.718;2023-04-01T11:28:24;9.43;;;5.13;;
51459;SDS011;37534;39.772;2.718;2023-04-01T11:31:08;16.30;;;5.63;;
51459;SDS011;37534;39.772;2.718;2023-04-01T11:37:16;16.58;;;4.80;;
51459;SDS011;37534;39.772;2.718;2023-04-01T11:50:34;10.45;;;5.75;;
51459;SDS011;37534;39.772;2.718;2023-04-01T11:53:10;13.52;;;7.55;;
51459;SDS011;37534;39.772;2.718;2023-04-01T11:56:28;12.98;;;5.90;;
51459;SDS011;37534;39.772;2.718;2023-04-01T11:58:53;14.48;;;6.70;;
51459;SDS011;37534;39.772;2.718;2023-04-01T12:10:44;11.82;;;7.18;;
51459;SDS011;37534;39.772;2.718;2023-04-01T12:13:35;17.50;;;6.97;;
51459;SDS011;37534;39.772;2.718;2023-04-01T12:16:16;13.23;;;5.47;;
51459;SDS011;37534;39.772;2.718;2023-04-01T12:18:53;14.93;;;5.38;;
51459;SDS011;37534;39.772;2.718;2023-04-01T12:27:19;16.73;;;6.00;;
51459;SDS011;37534;39.772;2.718;2023-04-01T12:44:51;9.68;;;5.28;;
51459;SDS011;37534;39.772;2.718;2023-04-01T12:47:57;17.25;;;6.00;;
51459;SDS011;37534;39.772;2.718;2023-04-01T12:53:27;14.05;;;6.60;;
51459;SDS011;37534;39.772;2.718;2023-04-01T13:07:23;16.77;;;7.18;;
51459;SDS011;37534;39.772;2.718;2023-04-01T13:15:24;14.93;;;6.57;;
51459;SDS011;37534;39.772;2.718;2023-04-01T13:20:58;13.48;;;5.65;;
51459;SDS011;37534;39.772;2.718;2023-04-01T13:26:24;8.23;;;4.85;;
51459;SDS011;37534;39.772;2.718;2023-04-01T13:35:03;13.30;;;5.95;;
51459;SDS011;37534;39.772;2.718;2023-04-01T13:40:33;15.95;;;5.07;;
51459;SDS011;37534;39.772;2.718;2023-04-01T13:43:38;9.50;;;4.93;;
51459;SDS011;37534;39.772;2.718;2023-04-01T13:46:16;7.43;;;4.05;;
51459;SDS011;37534;39.772;2.718;2023-04-01T14:03:11;14.02;;;4.85;;
51459;SDS011;37534;39.772;2.718;2023-04-01T14:16:47;10.95;;;5.10;;
51459;SDS011;37534;39.772;2.718;2023-04-01T14:22:10;6.20;;;4.40;;
51459;SDS011;37534;39.772;2.718;2023-04-01T14:28:13;11.75;;;5.25;;
51459;SDS011;37534;39.772;2.718;2023-04-01T14:30:58;9.90;;;4.80;;
51459;SDS011;37534;39.772;2.718;2023-04-01T14:44:50;11.65;;;4.60;;
51459;SDS011;37534;39.772;2.718;2023-04-01T14:50:16;16.70;;;4.63;;
51459;SDS011;37534;39.772;2.718;2023-04-01T14:52:58;8.52;;;4.68;;
51459;SDS011;37534;39.772;2.718;2023-04-01T14:58:10;9.32;;;5.15;;
51459;SDS011;37534;39.772;2.718;2023-04-01T15:01:00;9.98;;;4.85;;
51459;SDS011;37534;39.772;2.718;2023-04-01T15:03:32;8.60;;;3.58;;
51459;SDS011;37534;39.772;2.718;2023-04-01T15:25:00;12.98;;;4.63;;
51459;SDS011;37534;39.772;2.718;2023-04-01T15:30:33;13.15;;;4.82;;
51459;SDS011;37534;39.772;2.718;2023-04-01T15:36:01;10.75;;;5.10;;
51459;SDS011;37534;39.772;2.718;2023-04-01T15:38:34;15.60;;;5.45;;
51459;SDS011;37534;39.772;2.718;2023-04-01T15:41:13;10.13;;;4.90;;
51459;SDS011;37534;39.772;2.718;2023-04-01T15:43:43;10.88;;;4.95;;
51459;SDS011;37534;39.772;2.718;2023-04-01T15:54:25;16.20;;;5.07;;
51459;SDS011;37534;39.772;2.718;2023-04-01T16:00:09;6.32;;;3.88;;
51459;SDS011;37534;39.772;2.718;2023-04-01T16:13:28;8.98;;;3.80;;
51459;SDS011;37534;39.772;2.718;2023-04-01T16:16:31;6.53;;;3.70;;
51459;SDS011;37534;39.772;2.718;2023-04-01T16:24:24;11.25;;;4.45;;
51459;SDS011;37534;39.772;2.718;2023-04-01T16:27:23;5.95;;;3.58;;
51459;SDS011;37534;39.772;2.718;2023-04-01T16:32:57;10.52;;;4.43;;
51459;SDS011;37534;39.772;2.718;2023-04-01T16:36:08;6.05;;;3.28;;
51459;SDS011;37534;39.772;2.718;2023-04-01T16:38:47;12.07;;;5.20;;
51459;SDS011;37534;39.772;2.718;2023-04-01T16:41:29;6.13;;;4.20;;
51459;SDS011;37534;39.772;2.718;2023-04-01T16:46:50;7.30;;;3.92;;
51459;SDS011;37534;39.772;2.718;2023-04-01T16:52:30;10.95;;;4.10;;
51459;SDS011;37534;39.772;2.718;2023-04-01T16:55:00;7.43;;;3.88;;
51459;SDS011;37534;39.772;2.718;2023-04-01T16:58:10;10.10;;;4.70;;
51459;SDS011;37534;39.772;2.718;2023-04-01T17:00:37;9.93;;;4.88;;
51459;SDS011;37534;39.772;2.718;2023-04-01T17:16:54;14.23;;;4.00;;
51459;SDS011;37534;39.772;2.718;2023-04-01T17:22:40;5.80;;;3.33;;
51459;SDS011;37534;39.772;2.718;2023-04-01T17:33:42;11.55;;;4.43;;
51459;SDS011;37534;39.772;2.718;2023-04-01T17:39:07;18.63;;;4.72;;
51459;SDS011;37534;39.772;2.718;2023-04-01T17:42:04;9.32;;;4.75;;
51459;SDS011;37534;39.772;2.718;2023-04-01T17:44:53;12.32;;;5.28;;
51459;SDS011;37534;39.772;2.718;2023-04-01T17:53:33;11.75;;;5.10;;
51459;SDS011;37534;39.772;2.718;2023-04-01T17:59:10;11.43;;;4.55;;
51459;SDS011;37534;39.772;2.718;2023-04-01T18:02:12;18.33;;;5.78;;
51459;SDS011;37534;39.772;2.718;2023-04-01T18:10:41;10.20;;;4.40;;
51459;SDS011;37534;39.772;2.718;2023-04-01T18:13:54;13.77;;;5.20;;
51459;SDS011;37534;39.772;2.718;2023-04-01T18:16:24;18.58;;;6.38;;
51459;SDS011;37534;39.772;2.718;2023-04-01T18:19:24;15.00;;;5.45;;
51459;SDS011;37534;39.772;2.718;2023-04-01T18:21:53;10.98;;;4.97;;
51459;SDS011;37534;39.772;2.718;2023-04-01T18:24:42;11.38;;;4.80;;
51459;SDS011;37534;39.772;2.718;2023-04-01T18:30:17;10.45;;;5.03;;
51459;SDS011;37534;39.772;2.718;2023-04-01T18:32:57;10.48;;;5.55;;
51459;SDS011;37534;39.772;2.718;2023-04-01T18:38:13;19.30;;;6.65;;
51459;SDS011;37534;39.772;2.718;2023-04-01T18:40:43;10.27;;;6.07;;
51459;SDS011;37534;39.772;2.718;2023-04-01T18:46:16;16.98;;;5.32;;
51459;SDS011;37534;39.772;2.718;2023-04-01T18:57:37;22.58;;;7.70;;
51459;SDS011;37534;39.772;2.718;2023-04-01T19:00:04;11.73;;;6.70;;
51459;SDS011;37534;39.772;2.718;2023-04-01T19:02:45;17.42;;;6.80;;
51459;SDS011;37534;39.772;2.718;2023-04-01T19:05:19;12.90;;;5.88;;
51459;SDS011;37534;39.772;2.718;2023-04-01T19:10:22;11.65;;;6.22;;
51459;SDS011;37534;39.772;2.718;2023-04-01T19:18:35;18.60;;;7.00;;
51459;SDS011;37534;39.772;2.718;2023-04-01T19:21:31;11.68;;;6.30;;
51459;SDS011;37534;39.772;2.718;2023-04-01T19:26:40;21.20;;;8.75;;
51459;SDS011;37534;39.772;2.718;2023-04-01T19:29:24;15.38;;;8.07;;
51459;SDS011;37534;39.772;2.718;2023-04-01T19:37:28;8.90;;;4.68;;
51459;SDS011;37534;39.772;2.718;2023-04-01T19:42:52;9.73;;;4.78;;
51459;SDS011;37534;39.772;2.718;2023-04-01T19:57:25;9.75;;;4.95;;
51459;SDS011;37534;39.772;2.718;2023-04-01T19:59:48;15.15;;;5.30;;
51459;SDS011;37534;39.772;2.718;2023-04-01T20:04:59;21.80;;;5.10;;
51459;SDS011;37534;39.772;2.718;2023-04-01T20:07:41;6.82;;;4.30;;
51459;SDS011;37534;39.772;2.718;2023-04-01T20:10:21;14.25;;;4.90;;
51459;SDS011;37534;39.772;2.718;2023-04-01T20:16:15;18.30;;;5.88;;
51459;SDS011;37534;39.772;2.718;2023-04-01T20:18:49;14.18;;;5.47;;
51459;SDS011;37534;39.772;2.718;2023-04-01T20:26:30;14.07;;;4.53;;
51459;SDS011;37534;39.772;2.718;2023-04-01T20:37:49;9.32;;;4.22;;
51459;SDS011;37534;39.772;2.718;2023-04-01T20:40:41;15.07;;;5.38;;
51459;SDS011;37534;39.772;2.718;2023-04-01T20:43:35;19.23;;;5.63;;
51459;SDS011;37534;39.772;2.718;2023-04-01T20:46:24;10.73;;;5.60;;
51459;SDS011;37534;39.772;2.718;2023-04-01T20:51:39;10.68;;;5.97;;
51459;SDS011;37534;39.772;2.718;2023-04-01T21:08:14;17.05;;;5.05;;
51459;SDS011;37534;39.772;2.718;2023-04-01T21:11:00;20.15;;;4.78;;
51459;SDS011;37534;39.772;2.718;2023-04-01T21:13:53;13.93;;;5.70;;
51459;SDS011;37534;39.772;2.718;2023-04-01T21:52:07;11.13;;;2.38;;
51459;SDS011;37534;39.772;2.718;2023-04-01T22:05:07;16.60;;;2.58;;
51459;SDS011;37534;39.772;2.718;2023-04-01T22:07:58;8.98;;;2.72;;
51459;SDS011;37534;39.772;2.718;2023-04-01T22:10:59;16.33;;;2.85;;
51459;SDS011;37534;39.772;2.718;2023-04-01T22:16:37;15.57;;;2.90;;
51459;SDS011;37534;39.772;2.718;2023-04-01T22:19:22;7.20;;;2.38;;
51459;SDS011;37534;39.772;2.718;2023-04-01T22:21:59;5.20;;;2.22;;
51459;SDS011;37534;39.772;2.718;2023-04-01T22:27:00;7.70;;;1.70;;
51459;SDS011;37534;39.772;2.718;2023-04-01T22:34:52;6.22;;;1.98;;
51459;SDS011;37534;39.772;2.718;2023-04-01T22:37:31;4.00;;;1.60;;
51459;SDS011;37534;39.772;2.718;2023-04-01T22:40:17;2.55;;;1.10;;
51459;SDS011;37534;39.772;2.718;2023-04-01T22:43:03;4.72;;;1.35;;
51459;SDS011;37534;39.772;2.718;2023-04-01T22:45:46;11.05;;;1.85;;
51459;SDS011;37534;39.772;2.718;2023-04-01T22:48:23;3.47;;;1.75;;
51459;SDS011;37534;39.772;2.718;2023-04-01T22:59:06;6.00;;;2.63;;
51459;SDS011;37534;39.772;2.718;2023-04-01T23:01:36;8.80;;;2.85;;
51459;SDS011;37534;39.772;2.718;2023-04-01T23:04:12;4.18;;;1.63;;
51459;SDS011;37534;39.772;2.718;2023-04-01T23:06:44;3.25;;;1.55;;
51459;SDS011;37534;39.772;2.718;2023-04-01T23:14:30;4.70;;;1.35;;
51459;SDS011;37534;39.772;2.718;2023-04-01T23:20:00;10.00;;;1.48;;
51459;SDS011;37534;39.772;2.718;2023-04-01T23:22:39;7.43;;;2.78;;
51459;SDS011;37534;39.772;2.718;2023-04-01T23:28:31;8.30;;;1.75;;
51459;SDS011;37534;39.772;2.718;2023-04-01T23:30:58;5.38;;;1.88;;
51459;SDS011;37534;39.772;2.718;2023-04-01T23:33:26;11.20;;;2.55;;
51459;SDS011;37534;39.772;2.718;2023-04-01T23:38:30;8.57;;;2.40;;
51459;SDS011;37534;39.772;2.718;2023-04-01T23:41:01;5.80;;;1.77;;
51459;SDS011;37534;39.772;2.718;2023-04-01T23:43:39;8.20;;;2.20;;
51459;SDS011;37534;39.772;2.718;2023-04-01T23:46:07;4.78;;;1.40;;
51459;SDS011;37534;39.772;2.718;2023-04-01T23:48:40;3.97;;;2.00;;
51459;SDS011;37534;39.772;2.718;2023-04-01T23:53:48;4.93;;;1.65;;
51459;SDS011;37534;39.772;2.718;2023-04-01T23:56:39;3.63;;;2.38;;
51459;SDS011;37534;39.772;2.718;2023-04-01T23:59:14;8.48;;;3.80;;
